Terminal Aerodrome Forecast
Issued by NWS

Home | Current Version | Previous Version | Graphics & Text | Print | Product List | Glossary On
Versions: 1 2 3 4 5 6 7 8 9 10 11 12 13
000
FTUS43 KMPX 281138
TAFRWF
TAF
KRWF 281138Z 2812/2912 29013KT P6SM SKC
     FM281600 31016G26KT P6SM SCT060
     FM290100 30010KT P6SM SCT150=

USA.gov is the U.S. government's official web portal to all federal, state and local government web resources and services.